Time;durP1;ratioP1;P1;durP2;ratioP2;P2;SDS_P1;SDS_P2;PMS_P1;PMS_P2;Temp;Humidity;BMP_temperature;BMP_pressure;BME280_temperature;BME280_humidity;BME280_pressure;Samples;Min_cycle;Max_cycle;Signal;HPM_P1;HPM_P2
2022/11/08 00:01:58;;;;;;;6.23;3.30;;;;;;;;;;5114507;28;20393;-65
2022/11/08 00:04:26;;;;;;;8.60;3.47;;;;;;;;;;5114312;28;20438;-66
2022/11/08 00:15:09;;;;;;;8.00;3.93;;;;;;;;;;5113993;28;20399;-65
2022/11/08 00:17:37;;;;;;;8.67;4.40;;;;;;;;;;5114268;28;20440;-65
2022/11/08 00:20:04;;;;;;;12.33;4.17;;;;;;;;;;5113891;28;20464;-65
2022/11/08 00:22:32;;;;;;;5.40;4.10;;;;;;;;;;5113712;28;20447;-65
2022/11/08 00:25:00;;;;;;;13.10;3.87;;;;;;;;;;5113534;28;20447;-65
2022/11/08 00:27:27;;;;;;;8.90;3.93;;;;;;;;;;5114093;28;20446;-65
2022/11/08 00:29:55;;;;;;;11.70;3.60;;;;;;;;;;5113801;28;20447;-66
2022/11/08 00:32:23;;;;;;;10.37;3.27;;;;;;;;;;5113755;28;20476;-65
2022/11/08 00:34:50;;;;;;;8.87;3.17;;;;;;;;;;5113454;28;20443;-66
2022/11/08 00:37:18;;;;;;;11.40;4.10;;;;;;;;;;5113817;28;20811;-65
2022/11/08 00:39:46;;;;;;;6.77;3.53;;;;;;;;;;5114057;28;20465;-66
2022/11/08 00:42:14;;;;;;;6.77;3.70;;;;;;;;;;5115872;28;20476;-66
2022/11/08 00:44:41;;;;;;;10.50;3.80;;;;;;;;;;5118006;28;20444;-66
2022/11/08 00:47:09;;;;;;;6.63;3.70;;;;;;;;;;5118446;28;20450;-65
2022/11/08 00:49:36;;;;;;;11.90;4.20;;;;;;;;;;5117517;28;20448;-66
2022/11/08 00:52:03;;;;;;;5.30;3.27;;;;;;;;;;5117466;28;20566;-66
2022/11/08 00:54:31;;;;;;;11.53;4.70;;;;;;;;;;5117944;28;20441;-66
2022/11/08 00:56:58;;;;;;;8.03;5.23;;;;;;;;;;5117723;28;20454;-65
2022/11/08 00:59:26;;;;;;;8.30;4.00;;;;;;;;;;5117625;28;20440;-66
2022/11/08 01:01:53;;;;;;;9.23;4.30;;;;;;;;;;5117759;28;20966;-66
2022/11/08 01:04:21;;;;;;;8.57;3.40;;;;;;;;;;5117212;28;20928;-66
2022/11/08 01:06:48;;;;;;;5.33;3.50;;;;;;;;;;5117783;28;20788;-65
2022/11/08 01:09:15;;;;;;;6.90;3.60;;;;;;;;;;5117718;28;20530;-66
2022/11/08 01:11:45;;;;;;;7.93;4.07;;;;;;;;;;5117191;28;20489;-66
2022/11/08 01:14:13;;;;;;;8.67;3.77;;;;;;;;;;5117400;28;20798;-66
2022/11/08 01:16:42;;;;;;;8.63;3.50;;;;;;;;;;5117359;28;20435;-65
2022/11/08 01:19:09;;;;;;;8.50;3.90;;;;;;;;;;5117000;28;20482;-66
2022/11/08 01:21:36;;;;;;;11.07;3.90;;;;;;;;;;5117930;28;20451;-65
2022/11/08 01:24:03;;;;;;;7.93;4.30;;;;;;;;;;5117265;28;20441;-66
2022/11/08 01:26:30;;;;;;;5.20;3.23;;;;;;;;;;5116966;28;20434;-66
2022/11/08 01:28:58;;;;;;;11.70;3.77;;;;;;;;;;5117116;28;20818;-66
2022/11/08 01:31:27;;;;;;;11.67;4.40;;;;;;;;;;5117255;28;20519;-65
2022/11/08 01:33:56;;;;;;;10.93;3.60;;;;;;;;;;5116979;28;20451;-66
2022/11/08 01:36:24;;;;;;;6.07;3.43;;;;;;;;;;5117159;28;20438;-66
2022/11/08 01:38:52;;;;;;;9.93;4.13;;;;;;;;;;5116866;28;20487;-65
2022/11/08 01:41:20;;;;;;;5.70;4.20;;;;;;;;;;5117031;28;20450;-66
2022/11/08 01:43:48;;;;;;;6.83;4.03;;;;;;;;;;5116791;28;20480;-66
2022/11/08 01:46:31;;;;;;;8.37;3.30;;;;;;;;;;5116888;28;20445;-65
2022/11/08 01:49:03;;;;;;;15.83;3.97;;;;;;;;;;5116703;28;20431;-66
2022/11/08 01:51:33;;;;;;;9.37;3.77;;;;;;;;;;5116877;28;20437;-66
2022/11/08 01:54:04;;;;;;;7.80;3.50;;;;;;;;;;5116979;28;20432;-66
2022/11/08 01:56:31;;;;;;;13.10;4.03;;;;;;;;;;5116459;28;20794;-66
2022/11/08 01:58:59;;;;;;;5.20;3.53;;;;;;;;;;5116793;28;20446;-66
2022/11/08 02:01:26;;;;;;;10.57;4.50;;;;;;;;;;5116490;28;20457;-66
2022/11/08 02:03:54;;;;;;;7.90;3.90;;;;;;;;;;5116462;28;20445;-66
2022/11/08 02:06:22;;;;;;;6.13;3.67;;;;;;;;;;5116233;28;20445;-66
2022/11/08 02:08:49;;;;;;;7.63;3.80;;;;;;;;;;5116319;28;20438;-65
2022/11/08 02:11:18;;;;;;;8.97;4.50;;;;;;;;;;5115790;28;20435;-65
2022/11/08 02:13:45;;;;;;;11.17;3.70;;;;;;;;;;5115885;28;20976;-66
2022/11/08 02:16:13;;;;;;;12.40;4.20;;;;;;;;;;5116284;28;20451;-66
2022/11/08 02:18:42;;;;;;;9.10;3.43;;;;;;;;;;5116742;28;20443;-66
2022/11/08 02:21:12;;;;;;;4.20;3.23;;;;;;;;;;5116167;28;20439;-66
2022/11/08 02:23:48;;;;;;;7.47;3.57;;;;;;;;;;5115794;28;20534;-66
2022/11/08 02:26:15;;;;;;;7.13;3.87;;;;;;;;;;5116242;28;20437;-66
2022/11/08 02:28:43;;;;;;;7.30;3.50;;;;;;;;;;5115998;28;20438;-65
2022/11/08 02:31:11;;;;;;;6.00;3.23;;;;;;;;;;5116000;28;20443;-66
2022/11/08 02:33:38;;;;;;;4.63;3.40;;;;;;;;;;5115825;28;20479;-66
2022/11/08 02:36:07;;;;;;;10.70;3.70;;;;;;;;;;5115957;28;20995;-65
2022/11/08 02:38:35;;;;;;;3.60;2.80;;;;;;;;;;5115535;28;20440;-65
2022/11/08 02:41:03;;;;;;;10.03;3.80;;;;;;;;;;5115718;28;20443;-65
2022/11/08 02:43:31;;;;;;;10.00;3.20;;;;;;;;;;5115281;28;20471;-65
2022/11/08 02:45:58;;;;;;;5.43;2.90;;;;;;;;;;5115536;28;20449;-65
2022/11/08 02:48:25;;;;;;;5.77;3.23;;;;;;;;;;5115810;28;20446;-65
2022/11/08 02:50:53;;;;;;;5.53;3.50;;;;;;;;;;5115144;28;21027;-65
2022/11/08 02:53:20;;;;;;;6.47;3.40;;;;;;;;;;5115447;28;20482;-65
2022/11/08 02:55:47;;;;;;;6.30;3.37;;;;;;;;;;5115036;28;21019;-66
2022/11/08 02:58:16;;;;;;;5.33;3.40;;;;;;;;;;5115758;28;20447;-65
2022/11/08 03:00:43;;;;;;;6.57;3.20;;;;;;;;;;5115530;28;20444;-66
2022/11/08 03:03:10;;;;;;;7.80;3.60;;;;;;;;;;5114961;28;20449;-65
2022/11/08 03:05:37;;;;;;;11.20;3.83;;;;;;;;;;5114272;28;20943;-66
2022/11/08 03:08:05;;;;;;;11.90;3.70;;;;;;;;;;5115695;28;20784;-65
2022/11/08 03:10:32;;;;;;;4.37;3.27;;;;;;;;;;5114768;28;20947;-66
2022/11/08 03:13:00;;;;;;;9.40;3.00;;;;;;;;;;5114739;28;20482;-65
2022/11/08 03:15:29;;;;;;;14.57;4.60;;;;;;;;;;5114706;28;20807;-66
2022/11/08 03:17:56;;;;;;;12.60;3.63;;;;;;;;;;5115082;28;20439;-65
2022/11/08 03:20:23;;;;;;;9.40;4.50;;;;;;;;;;5114618;28;20455;-66
2022/11/08 03:22:57;;;;;;;4.53;2.80;;;;;;;;;;5114997;28;20451;-66
2022/11/08 03:25:24;;;;;;;5.20;3.43;;;;;;;;;;5114561;28;20439;-66
2022/11/08 03:27:52;;;;;;;6.20;3.90;;;;;;;;;;5114812;28;20446;-66
2022/11/08 03:30:19;;;;;;;17.40;6.40;;;;;;;;;;5114664;28;20508;-66
2022/11/08 03:32:48;;;;;;;10.33;4.30;;;;;;;;;;5115107;28;20485;-66
2022/11/08 03:35:15;;;;;;;7.77;2.90;;;;;;;;;;5114876;28;20852;-66
2022/11/08 03:37:49;;;;;;;7.83;3.20;;;;;;;;;;5114637;28;20448;-66
2022/11/08 03:40:17;;;;;;;10.60;3.30;;;;;;;;;;5114334;28;20427;-66
2022/11/08 03:42:44;;;;;;;5.63;2.93;;;;;;;;;;5114543;28;20659;-65
2022/11/08 03:45:11;;;;;;;5.77;3.20;;;;;;;;;;5114540;28;20435;-65
2022/11/08 03:47:38;;;;;;;8.27;3.70;;;;;;;;;;5114032;28;20474;-65
2022/11/08 03:50:08;;;;;;;11.67;3.07;;;;;;;;;;5114633;28;20468;-65
2022/11/08 03:52:40;;;;;;;16.63;4.13;;;;;;;;;;5114344;28;20475;-65
2022/11/08 03:55:08;;;;;;;15.67;3.97;;;;;;;;;;5114177;28;20431;-66
2022/11/08 03:57:35;;;;;;;5.20;3.47;;;;;;;;;;5113909;28;20443;-66
2022/11/08 04:00:02;;;;;;;8.53;3.77;;;;;;;;;;5114797;28;20534;-65
2022/11/08 04:02:30;;;;;;;7.93;3.03;;;;;;;;;;5114009;28;20472;-66
2022/11/08 04:04:57;;;;;;;7.30;3.37;;;;;;;;;;5114009;28;20977;-65
2022/11/08 04:07:26;;;;;;;7.77;3.10;;;;;;;;;;5114265;28;20443;-66
2022/11/08 04:09:53;;;;;;;4.50;3.70;;;;;;;;;;5114490;28;20473;-65
2022/11/08 04:15:14;;;;;;;8.30;3.27;;;;;;;;;;5114151;28;20440;-66
2022/11/08 04:23:15;;;;;;;13.70;6.40;;;;;;;;;;5087520;28;20427;-66
2022/11/08 04:25:43;;;;;;;5.30;3.07;;;;;;;;;;5114608;28;20443;-66
2022/11/08 04:28:10;;;;;;;6.28;3.53;;;;;;;;;;5113881;28;20460;-66
2022/11/08 04:30:37;;;;;;;7.03;3.40;;;;;;;;;;5114134;28;20192;-67
2022/11/08 04:33:05;;;;;;;10.53;3.67;;;;;;;;;;5113453;28;20478;-66
2022/11/08 04:35:33;;;;;;;6.40;3.43;;;;;;;;;;5114191;28;20512;-65
2022/11/08 04:38:00;;;;;;;4.50;3.17;;;;;;;;;;5114075;28;20438;-66
2022/11/08 04:40:30;;;;;;;3.57;2.50;;;;;;;;;;5113507;28;20442;-66
2022/11/08 04:42:57;;;;;;;8.60;3.20;;;;;;;;;;5113833;28;20538;-65
2022/11/08 04:45:24;;;;;;;8.87;3.03;;;;;;;;;;5114296;28;20535;-65
2022/11/08 04:47:51;;;;;;;9.40;3.50;;;;;;;;;;5112912;28;20537;-66
2022/11/08 04:50:19;;;;;;;5.10;2.90;;;;;;;;;;5113773;28;20614;-65
2022/11/08 04:52:51;;;;;;;5.97;3.27;;;;;;;;;;5113442;28;20474;-66
2022/11/08 04:55:19;;;;;;;13.40;3.90;;;;;;;;;;5113756;28;20439;-66
2022/11/08 04:57:47;;;;;;;5.17;2.90;;;;;;;;;;5113203;28;20962;-66
2022/11/08 05:00:15;;;;;;;5.97;3.23;;;;;;;;;;5113316;28;20435;-65
2022/11/08 05:02:42;;;;;;;8.53;3.30;;;;;;;;;;5113220;28;20531;-66
2022/11/08 05:05:10;;;;;;;9.70;3.27;;;;;;;;;;5113849;28;20537;-66
2022/11/08 05:07:37;;;;;;;3.63;2.37;;;;;;;;;;5113524;28;20470;-65
2022/11/08 05:10:05;;;;;;;7.03;3.13;;;;;;;;;;5113283;28;20443;-66
2022/11/08 05:12:32;;;;;;;5.37;3.07;;;;;;;;;;5113522;28;20533;-66
2022/11/08 05:15:00;;;;;;;5.27;3.90;;;;;;;;;;5114100;28;20456;-65
2022/11/08 05:17:28;;;;;;;5.40;3.47;;;;;;;;;;5113287;28;20526;-66
2022/11/08 05:25:25;;;;;;;6.70;3.47;;;;;;;;;;5113359;28;20398;-66
2022/11/08 05:27:52;;;;;;;6.00;3.30;;;;;;;;;;5115012;28;20444;-65
2022/11/08 05:30:20;;;;;;;8.30;3.80;;;;;;;;;;5116742;28;20453;-65
2022/11/08 05:32:50;;;;;;;4.17;3.50;;;;;;;;;;5116927;28;20485;-66
2022/11/08 05:35:20;;;;;;;14.87;4.17;;;;;;;;;;5117218;28;20438;-66
2022/11/08 05:37:47;;;;;;;4.00;3.53;;;;;;;;;;5116940;28;20442;-65
2022/11/08 05:40:15;;;;;;;7.73;3.60;;;;;;;;;;5117577;28;20442;-65
2022/11/08 05:42:42;;;;;;;15.03;4.40;;;;;;;;;;5116244;28;20561;-65
2022/11/08 05:45:09;;;;;;;10.47;3.67;;;;;;;;;;5116618;28;20455;-65
2022/11/08 05:47:38;;;;;;;12.47;4.20;;;;;;;;;;5116928;28;20522;-66
2022/11/08 05:50:06;;;;;;;5.47;3.50;;;;;;;;;;5116438;28;20445;-67
2022/11/08 05:52:33;;;;;;;10.20;4.70;;;;;;;;;;5116575;28;20438;-66
2022/11/08 05:55:00;;;;;;;10.43;3.90;;;;;;;;;;5116975;28;20650;-66
2022/11/08 05:57:28;;;;;;;7.40;3.80;;;;;;;;;;5116515;28;20440;-66
2022/11/08 05:59:55;;;;;;;7.30;3.60;;;;;;;;;;5116076;28;20443;-66
2022/11/08 06:02:22;;;;;;;10.80;3.93;;;;;;;;;;5116630;28;20526;-65
2022/11/08 06:04:51;;;;;;;6.07;3.43;;;;;;;;;;5116457;28;20451;-65
2022/11/08 06:07:18;;;;;;;5.73;4.10;;;;;;;;;;5116834;28;20850;-68
2022/11/08 06:09:45;;;;;;;5.43;3.40;;;;;;;;;;5116166;28;20521;-66
2022/11/08 06:12:12;;;;;;;9.03;4.20;;;;;;;;;;5116190;28;20450;-65
2022/11/08 06:14:40;;;;;;;7.00;3.60;;;;;;;;;;5116063;28;20484;-65
2022/11/08 06:17:07;;;;;;;8.30;3.57;;;;;;;;;;5115790;28;20636;-65
2022/11/08 06:19:34;;;;;;;5.53;3.50;;;;;;;;;;5116106;28;20439;-65
2022/11/08 06:22:03;;;;;;;11.20;3.50;;;;;;;;;;5116026;28;20448;-66
2022/11/08 06:24:30;;;;;;;6.97;3.90;;;;;;;;;;5115998;28;20450;-65
2022/11/08 06:26:57;;;;;;;10.83;3.67;;;;;;;;;;5115651;28;20535;-68
2022/11/08 06:29:24;;;;;;;6.70;4.23;;;;;;;;;;5115882;28;20470;-65
2022/11/08 06:31:51;;;;;;;10.40;4.97;;;;;;;;;;5115943;28;20445;-65
2022/11/08 06:34:19;;;;;;;3.87;3.27;;;;;;;;;;5115380;28;20468;-65
2022/11/08 06:36:46;;;;;;;6.13;3.50;;;;;;;;;;5115543;28;20970;-66
2022/11/08 06:39:14;;;;;;;4.70;3.17;;;;;;;;;;5114711;28;20449;-65
2022/11/08 06:41:41;;;;;;;9.40;3.57;;;;;;;;;;5115323;28;20449;-66
2022/11/08 06:44:09;;;;;;;11.70;4.40;;;;;;;;;;5115520;28;20930;-66
2022/11/08 06:46:36;;;;;;;5.83;5.23;;;;;;;;;;5115688;28;20443;-66
2022/11/08 06:49:03;;;;;;;8.43;3.90;;;;;;;;;;5115486;28;20443;-66
2022/11/08 06:51:30;;;;;;;7.50;3.67;;;;;;;;;;5115241;28;20442;-66
2022/11/08 06:53:58;;;;;;;5.23;4.07;;;;;;;;;;5115457;28;20846;-66
2022/11/08 06:56:26;;;;;;;6.77;3.87;;;;;;;;;;5115588;28;20438;-65
2022/11/08 06:58:53;;;;;;;5.30;2.70;;;;;;;;;;5115068;28;20981;-65
2022/11/08 07:01:21;;;;;;;5.13;3.47;;;;;;;;;;5115306;28;20534;-66
2022/11/08 07:03:48;;;;;;;5.73;4.67;;;;;;;;;;5115201;28;20447;-66
2022/11/08 07:06:15;;;;;;;5.47;3.10;;;;;;;;;;5115513;28;20449;-66
2022/11/08 07:08:42;;;;;;;5.70;3.50;;;;;;;;;;5114829;28;20439;-66
2022/11/08 07:11:09;;;;;;;7.50;3.60;;;;;;;;;;5115496;28;20438;-66
2022/11/08 07:13:38;;;;;;;10.87;3.83;;;;;;;;;;5114859;28;20840;-66
2022/11/08 07:16:06;;;;;;;6.30;3.50;;;;;;;;;;5114674;28;20542;-66
2022/11/08 07:18:33;;;;;;;6.10;3.77;;;;;;;;;;5114991;28;20439;-66
2022/11/08 07:21:00;;;;;;;6.20;3.40;;;;;;;;;;5115117;28;20439;-65
2022/11/08 07:23:28;;;;;;;11.40;3.80;;;;;;;;;;5114555;28;20438;-65
2022/11/08 07:25:55;;;;;;;8.30;4.80;;;;;;;;;;5114885;28;20473;-66
2022/11/08 07:28:22;;;;;;;8.97;3.60;;;;;;;;;;5114902;28;20444;-65
2022/11/08 07:30:51;;;;;;;5.20;3.33;;;;;;;;;;5114567;28;20443;-66
2022/11/08 07:33:18;;;;;;;5.10;2.83;;;;;;;;;;5115058;28;20566;-66
2022/11/08 07:35:46;;;;;;;5.77;3.33;;;;;;;;;;5114492;28;20439;-65
2022/11/08 07:38:14;;;;;;;3.73;2.83;;;;;;;;;;5115692;28;20912;-65
2022/11/08 07:40:41;;;;;;;5.60;3.07;;;;;;;;;;5114600;28;20449;-65
2022/11/08 07:43:08;;;;;;;8.20;3.70;;;;;;;;;;5114642;28;20574;-65
2022/11/08 07:45:35;;;;;;;5.23;3.03;;;;;;;;;;5114663;28;20444;-66
2022/11/08 07:48:05;;;;;;;3.83;2.70;;;;;;;;;;5114646;28;20439;-67
2022/11/08 07:50:32;;;;;;;4.87;3.10;;;;;;;;;;5114335;28;20869;-66
2022/11/08 07:53:00;;;;;;;3.30;2.70;;;;;;;;;;5114110;28;20444;-66
2022/11/08 07:55:27;;;;;;;6.00;3.23;;;;;;;;;;5113974;28;20444;-66
2022/11/08 07:58:00;;;;;;;3.80;2.50;;;;;;;;;;5114534;28;20530;-65
2022/11/08 08:00:27;;;;;;;6.47;3.37;;;;;;;;;;5114547;28;20517;-66
2022/11/08 08:02:57;;;;;;;8.60;3.40;;;;;;;;;;5114074;28;21054;-66
2022/11/08 08:05:26;;;;;;;5.53;3.00;;;;;;;;;;5114465;28;20439;-66
2022/11/08 08:07:56;;;;;;;5.43;2.67;;;;;;;;;;5114334;28;20466;-65
2022/11/08 08:10:23;;;;;;;4.83;3.20;;;;;;;;;;5114320;28;20454;-66
2022/11/08 08:12:51;;;;;;;3.50;2.40;;;;;;;;;;5113997;28;20451;-66
2022/11/08 08:15:18;;;;;;;3.30;3.00;;;;;;;;;;5113659;28;20510;-66
2022/11/08 08:17:45;;;;;;;6.27;2.50;;;;;;;;;;5113826;28;20951;-66
2022/11/08 08:20:13;;;;;;;4.37;2.50;;;;;;;;;;5114214;28;20449;-66
2022/11/08 08:22:45;;;;;;;7.10;2.83;;;;;;;;;;5114063;28;20459;-66
2022/11/08 08:25:12;;;;;;;9.10;3.27;;;;;;;;;;5114110;28;20428;-66
2022/11/08 08:27:39;;;;;;;3.57;2.60;;;;;;;;;;5113986;28;20531;-65
2022/11/08 08:30:07;;;;;;;5.10;3.00;;;;;;;;;;5114060;28;20535;-66
2022/11/08 08:32:34;;;;;;;4.70;2.67;;;;;;;;;;5113595;28;20453;-65
2022/11/08 08:35:02;;;;;;;3.07;2.67;;;;;;;;;;5114098;28;20566;-66
2022/11/08 08:37:29;;;;;;;2.87;2.57;;;;;;;;;;5113919;28;20483;-65
2022/11/08 08:39:57;;;;;;;3.67;3.10;;;;;;;;;;5114084;28;20480;-66
2022/11/08 08:42:25;;;;;;;3.97;2.90;;;;;;;;;;5113518;28;20477;-65
2022/11/08 08:44:52;;;;;;;4.20;2.40;;;;;;;;;;5113750;28;20448;-65
2022/11/08 08:47:20;;;;;;;3.73;2.90;;;;;;;;;;5113848;28;20445;-65
2022/11/08 08:49:47;;;;;;;8.03;3.30;;;;;;;;;;5113715;28;20453;-66
2022/11/08 08:52:14;;;;;;;4.37;2.90;;;;;;;;;;5113893;28;20508;-65
2022/11/08 08:54:42;;;;;;;3.47;2.80;;;;;;;;;;5113972;28;20818;-66
2022/11/08 08:57:10;;;;;;;5.87;2.77;;;;;;;;;;5113588;28;20432;-66
2022/11/08 08:59:37;;;;;;;2.80;2.37;;;;;;;;;;5113268;28;20444;-66
2022/11/08 09:02:05;;;;;;;4.30;2.90;;;;;;;;;;5113497;28;20495;-65
2022/11/08 09:04:32;;;;;;;5.60;2.30;;;;;;;;;;5117372;28;20446;-65
2022/11/08 09:06:59;;;;;;;3.07;2.70;;;;;;;;;;5117135;28;20449;-65
2022/11/08 09:09:26;;;;;;;2.50;2.30;;;;;;;;;;5117835;28;20509;-65
2022/11/08 09:11:53;;;;;;;3.13;2.40;;;;;;;;;;5117544;28;20448;-65
2022/11/08 09:14:22;;;;;;;5.13;2.67;;;;;;;;;;5117079;28;21015;-65
2022/11/08 09:16:49;;;;;;;3.13;2.33;;;;;;;;;;5117307;28;20442;-65
2022/11/08 09:19:17;;;;;;;5.30;2.43;;;;;;;;;;5117145;28;20445;-65
2022/11/08 09:21:44;;;;;;;5.53;2.53;;;;;;;;;;5116903;28;20437;-65
2022/11/08 09:24:11;;;;;;;2.70;2.33;;;;;;;;;;5116998;28;20937;-65
2022/11/08 09:26:38;;;;;;;5.33;2.20;;;;;;;;;;5117479;28;20824;-65
2022/11/08 09:29:05;;;;;;;3.20;2.23;;;;;;;;;;5117270;28;20443;-66
2022/11/08 09:31:34;;;;;;;5.40;2.27;;;;;;;;;;5117099;28;20449;-65
2022/11/08 09:34:01;;;;;;;7.40;2.40;;;;;;;;;;5117320;28;20503;-65
2022/11/08 09:36:28;;;;;;;8.17;2.30;;;;;;;;;;5116951;28;20441;-65
2022/11/08 09:38:56;;;;;;;3.83;3.53;;;;;;;;;;5116738;28;20440;-65
2022/11/08 09:41:31;;;;;;;7.90;2.00;;;;;;;;;;5116787;28;20463;-65
2022/11/08 09:44:09;;;;;;;6.23;2.50;;;;;;;;;;5117367;28;20559;-65
2022/11/08 09:46:40;;;;;;;3.57;2.13;;;;;;;;;;5117117;28;20434;-65
2022/11/08 09:49:09;;;;;;;2.60;2.20;;;;;;;;;;5117228;28;20455;-65
2022/11/08 09:51:37;;;;;;;3.57;2.00;;;;;;;;;;5117189;28;20441;-65
2022/11/08 09:54:06;;;;;;;3.53;2.50;;;;;;;;;;5117148;28;20473;-65
2022/11/08 09:56:35;;;;;;;5.00;2.57;;;;;;;;;;5116679;28;20442;-65
2022/11/08 09:59:05;;;;;;;4.57;2.20;;;;;;;;;;5116919;28;20433;-65
2022/11/08 10:01:33;;;;;;;2.27;2.07;;;;;;;;;;5116177;28;20945;-65
2022/11/08 10:04:03;;;;;;;4.30;2.27;;;;;;;;;;5117079;28;20790;-65
2022/11/08 10:06:48;;;;;;;4.00;2.07;;;;;;;;;;5116381;28;20525;-65
2022/11/08 10:09:25;;;;;;;2.50;2.10;;;;;;;;;;5116840;28;20863;-65
2022/11/08 10:12:01;;;;;;;2.53;2.10;;;;;;;;;;5116346;28;20545;-66
2022/11/08 10:14:37;;;;;;;3.20;2.00;;;;;;;;;;5116422;28;20470;-65
2022/11/08 10:17:14;;;;;;;2.63;1.90;;;;;;;;;;5115919;28;20435;-65
2022/11/08 10:19:47;;;;;;;2.20;1.93;;;;;;;;;;5116311;28;20532;-65
2022/11/08 10:22:18;;;;;;;3.17;1.93;;;;;;;;;;5116374;28;20755;-66
2022/11/08 10:24:48;;;;;;;3.67;1.83;;;;;;;;;;5116955;28;20459;-65
2022/11/08 10:27:17;;;;;;;2.70;1.80;;;;;;;;;;5115883;28;20529;-66
2022/11/08 10:29:45;;;;;;;2.40;1.73;;;;;;;;;;5116176;28;20442;-66
2022/11/08 10:32:15;;;;;;;2.60;1.93;;;;;;;;;;5115648;28;20942;-65
2022/11/08 10:34:44;;;;;;;2.33;1.67;;;;;;;;;;5116292;28;20555;-65
2022/11/08 10:37:14;;;;;;;2.73;2.07;;;;;;;;;;5115518;28;20461;-65
2022/11/08 10:39:44;;;;;;;3.40;1.40;;;;;;;;;;5115893;28;20545;-65
2022/11/08 10:42:14;;;;;;;1.70;1.60;;;;;;;;;;5115900;28;20574;-65
2022/11/08 10:44:41;;;;;;;4.93;2.00;;;;;;;;;;5115836;28;20456;-65
2022/11/08 10:47:13;;;;;;;2.23;1.73;;;;;;;;;;5115615;28;20528;-65
2022/11/08 10:49:42;;;;;;;2.30;1.70;;;;;;;;;;5115696;28;20442;-65
2022/11/08 10:52:17;;;;;;;3.63;1.90;;;;;;;;;;5115554;28;20959;-65
2022/11/08 10:54:46;;;;;;;3.17;1.90;;;;;;;;;;5115158;28;20468;-66
2022/11/08 10:57:14;;;;;;;3.73;2.13;;;;;;;;;;5115479;28;20930;-66
2022/11/08 10:59:42;;;;;;;2.67;2.10;;;;;;;;;;5115475;28;20495;-65
2022/11/08 11:02:18;;;;;;;3.00;2.20;;;;;;;;;;5115283;28;20452;-66
2022/11/08 11:04:45;;;;;;;3.07;1.77;;;;;;;;;;5115857;28;20438;-66
2022/11/08 11:07:27;;;;;;;4.53;2.13;;;;;;;;;;5114927;28;20537;-65
2022/11/08 11:09:54;;;;;;;2.53;2.10;;;;;;;;;;5116156;28;20824;-65
2022/11/08 11:12:22;;;;;;;2.40;1.90;;;;;;;;;;5115186;28;20458;-65
2022/11/08 11:14:56;;;;;;;2.20;2.00;;;;;;;;;;5114783;28;20477;-65
2022/11/08 11:17:29;;;;;;;1.90;1.70;;;;;;;;;;5115664;28;20479;-66
2022/11/08 11:19:57;;;;;;;2.00;1.80;;;;;;;;;;5114804;28;20431;-66
2022/11/08 11:22:27;;;;;;;3.03;1.80;;;;;;;;;;5114698;28;20445;-66
2022/11/08 11:24:56;;;;;;;3.37;2.00;;;;;;;;;;5114343;28;20445;-65
2022/11/08 11:27:25;;;;;;;3.90;2.17;;;;;;;;;;5114603;28;20439;-65
2022/11/08 11:30:11;;;;;;;2.70;1.93;;;;;;;;;;5114848;28;20543;-65
2022/11/08 11:32:38;;;;;;;2.10;1.90;;;;;;;;;;5114785;28;20824;-65
2022/11/08 11:35:07;;;;;;;3.20;2.50;;;;;;;;;;5114872;28;20476;-65
2022/11/08 11:37:38;;;;;;;2.40;1.90;;;;;;;;;;5115031;28;20446;-65
2022/11/08 11:40:12;;;;;;;2.30;2.10;;;;;;;;;;5114871;28;20434;-66
2022/11/08 11:42:43;;;;;;;5.10;1.60;;;;;;;;;;5114620;28;20920;-65
2022/11/08 11:45:16;;;;;;;2.10;1.70;;;;;;;;;;5114918;28;20471;-65
2022/11/08 11:47:46;;;;;;;2.40;1.70;;;;;;;;;;5114124;28;20953;-65
2022/11/08 11:50:20;;;;;;;2.70;1.80;;;;;;;;;;5114357;28;20419;-65
2022/11/08 11:52:47;;;;;;;3.20;2.30;;;;;;;;;;5114673;28;20740;-66
2022/11/08 11:55:16;;;;;;;2.60;1.90;;;;;;;;;;5114043;28;20484;-66
2022/11/08 11:57:51;;;;;;;6.60;2.10;;;;;;;;;;5114474;28;20530;-65
2022/11/08 12:00:18;;;;;;;2.20;2.00;;;;;;;;;;5114096;28;20502;-66
2022/11/08 12:03:19;;;;;;;5.10;2.00;;;;;;;;;;5114058;28;20961;-66
2022/11/08 12:05:49;;;;;;;2.30;2.03;;;;;;;;;;5031891;28;21021;-66
2022/11/08 12:08:23;;;;;;;2.60;1.70;;;;;;;;;;5031556;28;20431;-65
2022/11/08 12:11:00;;;;;;;3.30;2.03;;;;;;;;;;5074540;28;20804;-66
2022/11/08 12:13:34;;;;;;;2.47;2.20;;;;;;;;;;5113899;28;20463;-65
2022/11/08 12:16:06;;;;;;;3.47;2.23;;;;;;;;;;5113821;28;21010;-65
2022/11/08 12:18:43;;;;;;;3.93;2.03;;;;;;;;;;5114000;28;20434;-66
2022/11/08 12:21:13;;;;;;;5.27;1.97;;;;;;;;;;5113790;28;20947;-66
2022/11/08 12:23:52;;;;;;;2.73;1.83;;;;;;;;;;5114136;28;20765;-65
2022/11/08 12:26:24;;;;;;;2.77;1.90;;;;;;;;;;5114276;28;20503;-66
2022/11/08 12:29:00;;;;;;;3.57;2.03;;;;;;;;;;5114324;28;20431;-66
2022/11/08 12:31:28;;;;;;;3.97;2.20;;;;;;;;;;5113680;28;20432;-66
2022/11/08 12:34:06;;;;;;;2.50;2.30;;;;;;;;;;5113635;28;20447;-69
2022/11/08 12:36:36;;;;;;;2.17;2.00;;;;;;;;;;5113674;28;20558;-66
2022/11/08 12:39:09;;;;;;;3.97;2.70;;;;;;;;;;5117769;28;20524;-66
2022/11/08 12:41:43;;;;;;;4.77;2.47;;;;;;;;;;5118774;28;20508;-67
2022/11/08 12:44:28;;;;;;;1.87;1.67;;;;;;;;;;5117791;28;20445;-66
2022/11/08 12:47:07;;;;;;;2.63;2.43;;;;;;;;;;5118714;28;20432;-65
2022/11/08 12:49:39;;;;;;;2.90;2.30;;;;;;;;;;5118012;28;20433;-66
2022/11/08 12:52:11;;;;;;;3.60;2.60;;;;;;;;;;5118417;28;20446;-66
2022/11/08 12:54:39;;;;;;;4.03;2.70;;;;;;;;;;5118048;28;20441;-65
2022/11/08 12:57:11;;;;;;;2.57;2.37;;;;;;;;;;5117980;28;20600;-65
2022/11/08 12:59:41;;;;;;;3.00;2.50;;;;;;;;;;5117809;28;20523;-65
2022/11/08 13:02:15;;;;;;;5.27;2.00;;;;;;;;;;5118046;28;20425;-65
2022/11/08 13:04:44;;;;;;;6.20;2.23;;;;;;;;;;5117648;28;20493;-66
2022/11/08 13:07:21;;;;;;;2.67;1.70;;;;;;;;;;5118106;28;20532;-66
2022/11/08 13:09:51;;;;;;;3.77;2.10;;;;;;;;;;5117226;28;20423;-65
2022/11/08 13:12:33;;;;;;;4.67;2.33;;;;;;;;;;5118227;28;20461;-66
2022/11/08 13:15:00;;;;;;;3.40;2.13;;;;;;;;;;5117211;28;20547;-65
2022/11/08 13:17:27;;;;;;;4.37;2.30;;;;;;;;;;5117450;28;20804;-65
2022/11/08 13:19:56;;;;;;;2.03;1.90;;;;;;;;;;5117334;28;20442;-65
2022/11/08 13:22:46;;;;;;;2.27;2.07;;;;;;;;;;5117543;28;20442;-65
2022/11/08 13:25:28;;;;;;;2.80;2.17;;;;;;;;;;5117036;28;20425;-66
2022/11/08 13:27:57;;;;;;;4.70;2.63;;;;;;;;;;5100806;28;20458;-66
2022/11/08 13:30:34;;;;;;;3.00;2.70;;;;;;;;;;5117156;28;20436;-65
2022/11/08 13:33:05;;;;;;;3.00;2.50;;;;;;;;;;5117370;28;20418;-65
2022/11/08 13:35:34;;;;;;;4.03;2.60;;;;;;;;;;5116999;28;20528;-66
2022/11/08 13:38:08;;;;;;;3.90;2.20;;;;;;;;;;5117142;28;20437;-66
2022/11/08 13:40:42;;;;;;;2.23;2.03;;;;;;;;;;5117082;28;20539;-66
2022/11/08 13:43:28;;;;;;;7.07;2.10;;;;;;;;;;5117697;28;20984;-66
2022/11/08 13:45:55;;;;;;;7.13;2.30;;;;;;;;;;5116988;28;20969;-67
2022/11/08 13:48:36;;;;;;;6.63;2.47;;;;;;;;;;5116065;28;20446;-66
2022/11/08 13:51:24;;;;;;;5.30;2.00;;;;;;;;;;5116478;28;20450;-66
2022/11/08 13:53:53;;;;;;;2.73;1.83;;;;;;;;;;5116341;28;20444;-66
2022/11/08 13:56:25;;;;;;;3.53;2.63;;;;;;;;;;5115437;28;20481;-66
2022/11/08 13:58:54;;;;;;;4.67;2.40;;;;;;;;;;5116889;28;20449;-67
2022/11/08 14:01:39;;;;;;;1.83;1.73;;;;;;;;;;5116540;28;20442;-66
2022/11/08 14:04:23;;;;;;;5.33;2.13;;;;;;;;;;5116092;28;20448;-67
2022/11/08 14:06:55;;;;;;;3.20;2.00;;;;;;;;;;5116405;28;20443;-67
2022/11/08 14:09:27;;;;;;;4.23;2.43;;;;;;;;;;5116527;28;20449;-67
2022/11/08 14:11:58;;;;;;;10.30;2.90;;;;;;;;;;5116303;28;20455;-66
2022/11/08 14:14:40;;;;;;;6.60;2.33;;;;;;;;;;5115822;28;20526;-67
2022/11/08 14:17:14;;;;;;;4.57;2.20;;;;;;;;;;5116442;28;20592;-66
2022/11/08 14:19:42;;;;;;;2.30;2.10;;;;;;;;;;5116315;28;20438;-66
2022/11/08 14:22:14;;;;;;;10.57;2.57;;;;;;;;;;5115148;28;20881;-66
2022/11/08 14:24:42;;;;;;;2.40;1.87;;;;;;;;;;5115545;28;20948;-66
2022/11/08 14:27:11;;;;;;;3.00;2.20;;;;;;;;;;5115640;28;20448;-66
2022/11/08 14:29:38;;;;;;;3.90;2.10;;;;;;;;;;5115802;28;20529;-66
2022/11/08 14:32:07;;;;;;;4.07;2.43;;;;;;;;;;5116270;28;20802;-66
2022/11/08 14:34:36;;;;;;;4.50;2.10;;;;;;;;;;5115473;28;20436;-67
2022/11/08 14:37:04;;;;;;;2.40;1.90;;;;;;;;;;5116103;28;20573;-67
2022/11/08 14:39:33;;;;;;;2.20;2.00;;;;;;;;;;5116233;28;20868;-66
2022/11/08 14:42:01;;;;;;;3.70;2.00;;;;;;;;;;5115467;28;20936;-66
2022/11/08 14:44:29;;;;;;;2.40;1.93;;;;;;;;;;5116010;28;20434;-67
2022/11/08 14:46:56;;;;;;;3.23;2.20;;;;;;;;;;5116061;28;20482;-67
2022/11/08 14:49:30;;;;;;;6.23;2.47;;;;;;;;;;5115682;28;20524;-67
2022/11/08 14:52:12;;;;;;;3.20;2.30;;;;;;;;;;5115397;28;20433;-67
2022/11/08 14:54:41;;;;;;;2.80;2.40;;;;;;;;;;5115793;28;20501;-67
2022/11/08 14:57:26;;;;;;;3.37;2.50;;;;;;;;;;5115260;28;20510;-67
2022/11/08 14:59:53;;;;;;;2.47;2.00;;;;;;;;;;5101432;28;20480;-67
2022/11/08 15:02:20;;;;;;;7.20;2.63;;;;;;;;;;5114652;28;20445;-66
2022/11/08 15:04:48;;;;;;;3.20;2.53;;;;;;;;;;5114755;28;20451;-66
2022/11/08 15:07:17;;;;;;;5.77;2.57;;;;;;;;;;5114759;28;20536;-67
2022/11/08 15:09:45;;;;;;;2.83;2.53;;;;;;;;;;5114481;28;20443;-66
2022/11/08 15:12:14;;;;;;;3.30;2.27;;;;;;;;;;5115075;28;20484;-67
2022/11/08 15:14:47;;;;;;;3.87;2.20;;;;;;;;;;5115151;28;20484;-67
2022/11/08 15:17:29;;;;;;;4.57;1.93;;;;;;;;;;5115258;28;20469;-67